createdAt,value
2017-04-30T18:30:00.686Z,10.5
2017-04-30T18:31:10.495Z,10.48
2017-04-30T18:32:20.712Z,10.43
2017-04-30T18:33:30.837Z,10.34
2017-04-30T18:34:41.002Z,10.37
2017-04-30T18:35:51.456Z,10.32
2017-04-30T18:37:01.588Z,10.27
2017-04-30T18:38:11.704Z,10.3
2017-04-30T18:39:21.937Z,10.27
2017-04-30T18:40:32.068Z,10.17
2017-04-30T18:41:42.515Z,10.22
2017-04-30T18:42:52.709Z,10.15
2017-04-30T18:44:02.542Z,10.13
2017-04-30T18:45:12.693Z,10.07
2017-04-30T18:46:22.842Z,10.07
2017-04-30T18:47:33.342Z,10
2017-04-30T18:48:43.507Z,9.89
2017-04-30T18:49:53.625Z,10.02
2017-04-30T18:51:03.873Z,9.93
2017-04-30T18:52:14.055Z,9.96
2017-04-30T18:53:24.466Z,9.88
2017-04-30T18:54:34.282Z,9.88
2017-04-30T18:55:44.405Z,9.89
2017-04-30T18:56:54.511Z,9.81
2017-04-30T18:58:04.631Z,9.77
2017-04-30T18:59:15.079Z,9.75
2017-04-30T19:00:25.220Z,9.71
2017-04-30T19:01:35.031Z,9.75
2017-04-30T19:02:45.164Z,9.7
2017-04-30T19:03:55.353Z,9.75
2017-04-30T19:05:05.486Z,9.74
2017-04-30T19:06:15.646Z,9.65
2017-04-30T19:07:25.420Z,9.59
2017-04-30T19:08:35.236Z,9.56
2017-04-30T19:09:45.349Z,9.53
2017-04-30T19:10:55.747Z,9.55
2017-04-30T19:12:05.883Z,9.47
2017-04-30T19:13:16.070Z,9.37
2017-04-30T19:14:25.860Z,9.45
2017-04-30T19:15:35.985Z,9.41
2017-04-30T19:16:46.090Z,9.48
2017-04-30T19:17:56.223Z,9.42
2017-04-30T19:19:06.350Z,9.4
2017-04-30T19:20:16.504Z,9.3
2017-04-30T19:21:26.386Z,9.42
2017-04-30T19:22:36.873Z,9.35
2017-04-30T19:23:46.978Z,9.34
2017-04-30T19:24:57.094Z,9.35
2017-04-30T19:26:07.230Z,9.3
2017-04-30T19:27:17.338Z,9.33
2017-04-30T19:28:27.800Z,9.33
2017-04-30T19:29:37.963Z,9.29
2017-04-30T19:30:48.135Z,9.22
2017-04-30T19:31:57.951Z,9.11
2017-04-30T19:33:08.080Z,9.23
2017-04-30T19:34:18.674Z,9.16
2017-04-30T19:35:28.792Z,9.08
2017-04-30T19:36:38.920Z,9.04
2017-04-30T19:37:49.063Z,9
2017-04-30T19:38:58.863Z,9
2017-04-30T19:40:09.600Z,9.04
2017-04-30T19:41:19.813Z,9.07
2017-04-30T19:42:29.988Z,8.92
2017-04-30T19:43:40.235Z,8.95
2017-04-30T19:44:50.359Z,9.01
2017-04-30T19:46:00.780Z,8.86
2017-04-30T19:47:10.900Z,8.87
2017-04-30T19:48:21.079Z,8.89
2017-04-30T19:49:31.522Z,8.9
2017-04-30T19:50:41.651Z,8.77
2017-04-30T19:51:52.069Z,8.8
2017-04-30T19:53:02.225Z,8.74
2017-04-30T19:54:12.374Z,8.8
2017-04-30T19:55:22.492Z,8.71
2017-04-30T19:56:32.594Z,8.68
2017-04-30T19:57:43.005Z,8.63
2017-04-30T19:58:53.362Z,8.6
2017-04-30T20:00:03.503Z,8.6
2017-04-30T20:01:13.653Z,8.57
2017-04-30T20:02:23.895Z,8.5
2017-04-30T20:03:34.397Z,8.49
2017-04-30T20:04:44.633Z,8.49
2017-04-30T20:05:54.786Z,8.48
2017-04-30T20:07:04.884Z,8.55
2017-04-30T20:08:15.064Z,8.55
2017-04-30T20:09:25.500Z,8.53
2017-04-30T20:10:35.614Z,8.46
2017-04-30T20:11:45.864Z,8.48
2017-04-30T20:12:55.997Z,8.43
2017-04-30T20:14:06.208Z,8.35
2017-04-30T20:15:16.609Z,8.35
2017-04-30T20:16:26.736Z,8.39
2017-04-30T20:17:36.866Z,8.32
2017-04-30T20:18:46.986Z,8.31
2017-04-30T20:19:57.193Z,8.31
2017-04-30T20:21:07.689Z,8.16
2017-04-30T20:22:17.468Z,8.16
2017-04-30T20:23:27.620Z,8.23
2017-04-30T20:24:37.737Z,8.13
2017-04-30T20:25:47.832Z,8.16
2017-04-30T20:26:58.321Z,8.15
2017-04-30T20:28:08.456Z,8.02
2017-04-30T20:29:18.584Z,8.05
2017-04-30T20:30:28.736Z,8.03
2017-04-30T20:31:38.609Z,8.03
2017-04-30T20:32:49.049Z,8.02
2017-04-30T20:33:59.167Z,8.05
2017-04-30T20:35:09.341Z,8.03
2017-04-30T20:36:19.536Z,7.98
2017-04-30T20:37:29.654Z,8.05
2017-04-30T20:38:40.058Z,7.95
2017-04-30T20:39:49.865Z,7.95
2017-04-30T20:40:59.742Z,7.9
2017-04-30T20:42:09.917Z,7.88
2017-04-30T20:43:20.079Z,7.84
2017-04-30T20:44:30.542Z,7.76
2017-04-30T20:45:40.755Z,7.85
2017-04-30T20:46:50.868Z,7.79
2017-04-30T20:48:00.968Z,7.8
2017-04-30T20:49:11.171Z,7.79
2017-04-30T20:50:21.607Z,7.79
2017-04-30T20:51:31.795Z,7.7
2017-04-30T20:52:41.924Z,7.76
2017-04-30T20:53:52.116Z,7.79
2017-04-30T20:55:02.321Z,7.79
2017-04-30T20:56:12.405Z,7.73
2017-04-30T20:57:22.625Z,7.7
2017-04-30T20:58:32.405Z,7.73
2017-04-30T20:59:42.184Z,7.7
2017-04-30T21:00:52.285Z,7.7
2017-04-30T21:02:02.735Z,7.62
2017-04-30T21:03:12.865Z,7.62
2017-04-30T21:04:22.647Z,7.67
2017-04-30T21:05:32.759Z,7.64
2017-04-30T21:06:42.866Z,7.66
2017-04-30T21:07:53.270Z,7.55
2017-04-30T21:09:03.418Z,7.61
2017-04-30T21:10:13.204Z,7.61
2017-04-30T21:11:23.334Z,7.58
2017-04-30T21:12:33.432Z,7.58
2017-04-30T21:13:43.268Z,7.56
2017-04-30T21:14:53.429Z,7.54
2017-04-30T21:16:03.317Z,7.58
2017-04-30T21:17:13.110Z,7.48
2017-04-30T21:18:22.891Z,7.47
2017-04-30T21:19:33.481Z,7.47
2017-04-30T21:20:43.728Z,7.31
2017-04-30T21:21:53.902Z,7.39
2017-04-30T21:23:04.033Z,7.39
2017-04-30T21:24:14.192Z,7.37
2017-04-30T21:25:24.632Z,7.36
2017-04-30T21:26:34.420Z,7.31
2017-04-30T21:27:44.717Z,7.31
2017-04-30T21:28:54.594Z,7.26
2017-04-30T21:30:04.899Z,7.33
2017-04-30T21:31:15.292Z,7.29
2017-04-30T21:32:25.414Z,7.26
2017-04-30T21:33:35.638Z,7.22
2017-04-30T21:34:45.858Z,7.26
2017-04-30T21:35:56.031Z,7.26
2017-04-30T21:37:06.560Z,7.28
2017-04-30T21:38:16.657Z,7.29
2017-04-30T21:39:26.757Z,7.24
2017-04-30T21:40:36.876Z,7.21
2017-04-30T21:41:47.001Z,7.24
2017-04-30T21:42:57.529Z,7.17
2017-04-30T21:44:07.364Z,7.11
2017-04-30T21:45:17.155Z,7.03
2017-04-30T21:46:27.261Z,7.17
2017-04-30T21:47:37.120Z,7.21
2017-04-30T21:48:47.530Z,7.18
2017-04-30T21:49:57.772Z,7.18
2017-04-30T21:51:07.876Z,7.13
2017-04-30T21:52:18.028Z,7.08
2017-04-30T21:53:28.279Z,7.14
2017-04-30T21:54:38.673Z,7.03
2017-04-30T21:55:48.924Z,7.05
2017-04-30T21:56:59.103Z,7
2017-04-30T21:58:09.290Z,7.08
2017-04-30T21:59:18.846Z,7.03
2017-04-30T22:00:28.924Z,6.97
2017-04-30T22:01:39.035Z,7.06
2017-04-30T22:02:49.192Z,7.11
2017-04-30T22:03:59.401Z,7.08
2017-04-30T22:05:09.508Z,7.06
2017-04-30T22:06:19.989Z,6.97
2017-04-30T22:07:29.775Z,6.93
2017-04-30T22:08:39.893Z,6.87
2017-04-30T22:09:50.053Z,6.97
2017-04-30T22:11:00.208Z,6.93
2017-04-30T22:12:10.613Z,6.95
2017-04-30T22:13:20.922Z,6.9
2017-04-30T22:14:31.107Z,6.93
2017-04-30T22:15:41.253Z,6.89
2017-04-30T22:16:51.374Z,6.93
2017-04-30T22:18:01.809Z,6.93
2017-04-30T22:19:11.634Z,6.9
2017-04-30T22:20:21.756Z,6.9
2017-04-30T22:21:31.868Z,6.96
2017-04-30T22:22:42.094Z,6.9
2017-04-30T22:23:52.495Z,6.81
2017-04-30T22:25:02.664Z,6.85
2017-04-30T22:26:12.768Z,6.85
2017-04-30T22:27:22.543Z,6.74
2017-04-30T22:28:32.336Z,6.82
2017-04-30T22:29:42.732Z,6.79
2017-04-30T22:30:52.498Z,6.75
2017-04-30T22:32:02.582Z,6.69
2017-04-30T22:33:12.718Z,6.72
2017-04-30T22:34:22.834Z,6.62
2017-04-30T22:35:32.662Z,6.62
2017-04-30T22:36:42.874Z,6.57
2017-04-30T22:37:53.047Z,6.56
2017-04-30T22:39:03.184Z,6.64
2017-04-30T22:40:13.137Z,6.56
2017-04-30T22:41:23.584Z,6.53
2017-04-30T22:42:33.689Z,6.63
2017-04-30T22:43:43.787Z,6.56
2017-04-30T22:44:53.910Z,6.54
2017-04-30T22:46:03.669Z,6.63
2017-04-30T22:47:13.746Z,6.57
2017-04-30T22:48:23.513Z,6.53
2017-04-30T22:49:33.651Z,6.64
2017-04-30T22:50:43.786Z,6.6
2017-04-30T22:51:53.551Z,6.67
2017-04-30T22:53:03.951Z,6.53
2017-04-30T22:54:13.785Z,6.53
2017-04-30T22:55:23.572Z,6.6
2017-04-30T22:56:33.672Z,6.54
2017-04-30T22:57:43.918Z,6.56
2017-04-30T22:58:54.016Z,6.53
2017-04-30T23:00:04.151Z,6.57
2017-04-30T23:01:13.929Z,6.54
2017-04-30T23:02:24.177Z,6.57
2017-04-30T23:03:33.983Z,6.54
2017-04-30T23:04:44.404Z,6.57
2017-04-30T23:05:54.164Z,6.49
2017-04-30T23:07:04.284Z,6.54
2017-04-30T23:08:14.076Z,6.44
2017-04-30T23:09:24.184Z,6.39
2017-04-30T23:10:34.591Z,6.45
2017-04-30T23:11:44.736Z,6.41
2017-04-30T23:12:54.889Z,6.38
2017-04-30T23:14:05.080Z,6.42
2017-04-30T23:15:15.279Z,6.38
2017-04-30T23:16:25.720Z,6.45
2017-04-30T23:17:35.812Z,6.46
2017-04-30T23:18:45.929Z,6.44
2017-04-30T23:19:56.040Z,6.42
2017-04-30T23:21:06.136Z,6.45
2017-04-30T23:22:16.201Z,6.44
2017-04-30T23:23:26.003Z,6.35
2017-04-30T23:24:36.108Z,6.3
2017-04-30T23:25:46.002Z,6.28
2017-04-30T23:26:56.161Z,6.31
2017-04-30T23:28:06.512Z,6.36
2017-04-30T23:29:16.685Z,6.31
2017-04-30T23:30:26.801Z,6.31
2017-04-30T23:31:36.550Z,6.34
2017-04-30T23:32:46.667Z,6.31
2017-04-30T23:33:57.224Z,6.3
2017-04-30T23:35:07.356Z,6.26
2017-04-30T23:36:17.460Z,6.23
2017-04-30T23:37:27.555Z,6.17
2017-04-30T23:38:37.845Z,6.21
2017-04-30T23:39:48.285Z,6.12
2017-04-30T23:40:58.614Z,6.2
2017-04-30T23:42:08.526Z,6.23
2017-04-30T23:43:18.654Z,6.2
2017-04-30T23:44:28.793Z,6.2
2017-04-30T23:45:39.193Z,6.21
2017-04-30T23:46:49.442Z,6.14
2017-04-30T23:47:59.612Z,6.11
2017-04-30T23:49:10.010Z,6.19
2017-04-30T23:50:19.791Z,6.14
2017-04-30T23:51:30.251Z,6.14
2017-04-30T23:52:40.345Z,6.03
2017-04-30T23:53:50.448Z,6.02
2017-04-30T23:55:00.550Z,6.03
2017-04-30T23:56:10.636Z,6.06
2017-04-30T23:57:21.100Z,6.01
2017-04-30T23:58:31.205Z,6.06
2017-04-30T23:59:41.006Z,6.08
